Time;durP1;ratioP1;P1;durP2;ratioP2;P2;SDS_P1;SDS_P2;PMS_P1;PMS_P2;Temp;Humidity;BMP_temperature;BMP_pressure;BME280_temperature;BME280_humidity;BME280_pressure;Samples;Min_cycle;Max_cycle;Signal;HPM_P1;HPM_P2
2023/08/05 00:00:44;;;;;;;6.75;2.90;;;;;;;;;;4993494;28;92636;-72
2023/08/05 00:03:10;;;;;;;14.88;3.00;;;;;;;;;;4991605;28;95300;-72
2023/08/05 00:05:39;;;;;;;8.00;3.47;;;;;;;;;;4991594;28;93131;-73
2023/08/05 00:08:06;;;;;;;4.53;3.58;;;;;;;;;;4990976;28;92546;-72
2023/08/05 00:10:32;;;;;;;9.38;3.65;;;;;;;;;;4989168;28;93060;-72
2023/08/05 00:12:59;;;;;;;5.72;3.25;;;;;;;;;;4994217;28;93367;-72
2023/08/05 00:15:25;;;;;;;7.20;3.42;;;;;;;;;;4992705;28;93389;-74
2023/08/05 00:17:52;;;;;;;8.82;3.50;;;;;;;;;;4991460;28;93507;-73
2023/08/05 00:20:19;;;;;;;12.35;3.42;;;;;;;;;;4992189;28;91831;-72
2023/08/05 00:22:45;;;;;;;5.75;3.42;;;;;;;;;;4998286;28;93572;-72
2023/08/05 00:25:11;;;;;;;6.78;3.30;;;;;;;;;;4995671;28;93779;-73
2023/08/05 00:27:38;;;;;;;6.30;3.10;;;;;;;;;;4995592;28;94908;-73
2023/08/05 00:30:04;;;;;;;5.93;2.75;;;;;;;;;;4992458;28;96724;-72
2023/08/05 00:32:34;;;;;;;9.68;3.20;;;;;;;;;;4992252;28;93372;-73
2023/08/05 00:35:00;;;;;;;7.27;3.47;;;;;;;;;;4988644;28;93370;-72
2023/08/05 00:37:27;;;;;;;3.95;3.20;;;;;;;;;;4995144;28;93786;-72
2023/08/05 00:39:53;;;;;;;6.47;3.55;;;;;;;;;;4991664;28;93373;-73
2023/08/05 00:42:19;;;;;;;6.05;3.33;;;;;;;;;;4995574;28;93120;-72
2023/08/05 00:44:46;;;;;;;7.75;3.40;;;;;;;;;;4994631;28;92736;-72
2023/08/05 00:47:15;;;;;;;7.95;3.38;;;;;;;;;;4988251;28;94105;-72
2023/08/05 00:49:41;;;;;;;8.02;3.40;;;;;;;;;;5000929;28;93196;-72
2023/08/05 00:52:08;;;;;;;7.55;3.70;;;;;;;;;;4990087;28;95937;-73
2023/08/05 00:54:35;;;;;;;7.60;3.80;;;;;;;;;;4999239;28;92561;-73
2023/08/05 00:57:02;;;;;;;4.53;3.35;;;;;;;;;;4989866;28;93967;-73
2023/08/05 00:59:28;;;;;;;10.57;3.65;;;;;;;;;;4991885;28;92975;-72
2023/08/05 01:01:54;;;;;;;9.60;3.72;;;;;;;;;;4990406;28;93163;-73
2023/08/05 01:04:21;;;;;;;9.35;3.60;;;;;;;;;;4994039;28;93563;-73
2023/08/05 01:06:47;;;;;;;8.38;3.70;;;;;;;;;;4996043;28;92686;-74
2023/08/05 01:09:14;;;;;;;10.07;3.63;;;;;;;;;;4997088;28;93102;-74
2023/08/05 01:11:41;;;;;;;5.75;3.58;;;;;;;;;;4994602;28;93417;-74
2023/08/05 01:14:07;;;;;;;6.20;4.10;;;;;;;;;;4999465;28;92572;-74
2023/08/05 01:16:34;;;;;;;6.38;3.97;;;;;;;;;;4997832;28;94974;-74
2023/08/05 01:19:01;;;;;;;11.07;4.20;;;;;;;;;;4993213;28;92447;-74
2023/08/05 01:21:35;;;;;;;5.63;3.58;;;;;;;;;;4996324;28;94154;-74
2023/08/05 01:24:10;;;;;;;5.05;3.55;;;;;;;;;;4997703;28;96297;-73
2023/08/05 01:26:37;;;;;;;10.07;3.75;;;;;;;;;;4995638;28;92783;-74
2023/08/05 01:29:04;;;;;;;7.07;3.75;;;;;;;;;;4995545;28;93187;-74
2023/08/05 01:31:31;;;;;;;10.20;4.07;;;;;;;;;;4996347;28;93516;-74
2023/08/05 01:33:58;;;;;;;10.02;4.22;;;;;;;;;;4996308;28;91719;-74
2023/08/05 01:36:24;;;;;;;11.20;4.10;;;;;;;;;;4995570;28;94202;-74
2023/08/05 01:38:51;;;;;;;12.68;4.30;;;;;;;;;;4994084;28;93647;-75
2023/08/05 01:41:17;;;;;;;7.63;3.90;;;;;;;;;;4992633;28;95330;-74
2023/08/05 01:43:44;;;;;;;8.52;3.78;;;;;;;;;;4994854;28;93751;-74
2023/08/05 01:46:10;;;;;;;6.93;3.78;;;;;;;;;;4996679;28;92603;-74
2023/08/05 01:48:37;;;;;;;15.55;4.03;;;;;;;;;;4990505;28;93248;-74
2023/08/05 01:51:03;;;;;;;6.80;3.63;;;;;;;;;;4997326;28;93457;-74
2023/08/05 01:53:29;;;;;;;9.32;4.15;;;;;;;;;;4993523;28;92657;-74
2023/08/05 01:55:56;;;;;;;5.82;3.80;;;;;;;;;;4993819;28;92770;-74
2023/08/05 01:58:22;;;;;;;4.50;3.70;;;;;;;;;;4995151;28;92590;-74
2023/08/05 02:00:50;;;;;;;4.57;3.70;;;;;;;;;;4998483;28;92554;-73
2023/08/05 02:03:16;;;;;;;13.77;4.72;;;;;;;;;;4994361;28;93656;-73
2023/08/05 02:05:43;;;;;;;9.68;4.15;;;;;;;;;;4988954;28;95031;-73
2023/08/05 02:08:09;;;;;;;7.90;3.70;;;;;;;;;;4993997;28;95843;-73
2023/08/05 02:10:37;;;;;;;13.63;4.10;;;;;;;;;;4991853;28;93427;-74
2023/08/05 02:13:04;;;;;;;9.07;4.05;;;;;;;;;;4994377;28;92459;-73
2023/08/05 02:15:30;;;;;;;7.82;3.40;;;;;;;;;;4995407;28;94073;-72
2023/08/05 02:17:57;;;;;;;8.48;3.60;;;;;;;;;;4998049;28;93803;-72
2023/08/05 02:20:23;;;;;;;6.13;3.60;;;;;;;;;;4998987;28;92431;-73
2023/08/05 02:22:50;;;;;;;11.20;4.30;;;;;;;;;;4994660;28;93334;-72
2023/08/05 02:25:16;;;;;;;14.90;4.35;;;;;;;;;;4995530;28;92841;-73
2023/08/05 02:27:42;;;;;;;8.63;3.72;;;;;;;;;;4994134;28;94306;-73
2023/08/05 02:30:09;;;;;;;6.97;3.90;;;;;;;;;;4993252;28;95811;-73
2023/08/05 02:32:35;;;;;;;12.90;3.80;;;;;;;;;;4993943;28;92504;-72
2023/08/05 02:35:02;;;;;;;5.75;3.40;;;;;;;;;;4995287;28;93505;-73
2023/08/05 02:37:28;;;;;;;14.13;4.05;;;;;;;;;;4994844;28;93440;-73
2023/08/05 02:39:54;;;;;;;7.00;3.72;;;;;;;;;;4996592;28;92480;-73
2023/08/05 02:42:21;;;;;;;9.10;3.75;;;;;;;;;;4995727;28;93682;-74
2023/08/05 02:44:49;;;;;;;14.48;4.43;;;;;;;;;;4993915;28;92688;-73
2023/08/05 02:47:15;;;;;;;8.80;3.35;;;;;;;;;;4997157;28;93137;-73
2023/08/05 02:49:42;;;;;;;4.18;3.22;;;;;;;;;;4993905;28;94523;-74
2023/08/05 02:52:08;;;;;;;8.05;4.00;;;;;;;;;;4993609;28;92678;-73
2023/08/05 02:54:35;;;;;;;7.60;3.42;;;;;;;;;;4991316;28;94776;-72
2023/08/05 02:57:01;;;;;;;10.95;3.90;;;;;;;;;;4992556;28;93801;-73
2023/08/05 02:59:28;;;;;;;6.65;3.58;;;;;;;;;;5001230;28;95450;-72
2023/08/05 03:01:54;;;;;;;5.95;3.80;;;;;;;;;;4992773;28;93334;-73
2023/08/05 03:04:20;;;;;;;10.88;3.70;;;;;;;;;;4996459;28;93501;-72
2023/08/05 03:06:47;;;;;;;7.45;3.65;;;;;;;;;;4989690;28;93149;-72
2023/08/05 03:09:14;;;;;;;9.98;3.78;;;;;;;;;;4993918;28;93961;-72
2023/08/05 03:11:40;;;;;;;5.68;3.70;;;;;;;;;;4992612;28;91770;-72
2023/08/05 03:14:06;;;;;;;5.68;3.45;;;;;;;;;;4992510;28;92514;-73
2023/08/05 03:16:33;;;;;;;7.07;3.55;;;;;;;;;;4991309;28;93725;-73
2023/08/05 03:18:59;;;;;;;8.73;3.70;;;;;;;;;;4993026;28;94940;-73
2023/08/05 03:21:26;;;;;;;6.20;3.70;;;;;;;;;;4992994;28;95428;-72
2023/08/05 03:23:52;;;;;;;5.95;3.78;;;;;;;;;;4993096;28;93474;-73
2023/08/05 03:26:18;;;;;;;5.18;4.03;;;;;;;;;;4995681;28;92819;-71
2023/08/05 03:28:45;;;;;;;6.22;4.05;;;;;;;;;;4988114;28;93359;-73
2023/08/05 03:31:11;;;;;;;6.70;4.05;;;;;;;;;;4995674;28;92539;-72
2023/08/05 03:33:37;;;;;;;6.10;4.00;;;;;;;;;;4992154;28;95018;-72
2023/08/05 03:36:04;;;;;;;11.85;4.32;;;;;;;;;;4992199;28;93064;-72
2023/08/05 03:38:30;;;;;;;8.40;4.57;;;;;;;;;;4991849;28;92641;-71
2023/08/05 03:41:00;;;;;;;4.95;4.32;;;;;;;;;;4992091;28;93519;-73
2023/08/05 03:43:26;;;;;;;11.07;4.28;;;;;;;;;;4990782;28;95840;-72
2023/08/05 03:45:52;;;;;;;9.80;3.95;;;;;;;;;;4990012;28;92826;-71
2023/08/05 03:48:19;;;;;;;11.50;5.13;;;;;;;;;;4995409;28;96057;-71
2023/08/05 03:50:45;;;;;;;7.28;4.78;;;;;;;;;;4990762;28;92436;-72
2023/08/05 03:53:12;;;;;;;6.70;5.32;;;;;;;;;;4993943;28;93145;-71
2023/08/05 03:55:38;;;;;;;5.03;4.53;;;;;;;;;;4990796;28;94657;-72
2023/08/05 03:58:04;;;;;;;8.38;4.88;;;;;;;;;;4997689;28;92565;-72
2023/08/05 04:00:31;;;;;;;8.68;5.05;;;;;;;;;;4990441;28;93151;-78
2023/08/05 04:02:57;;;;;;;8.85;5.40;;;;;;;;;;4990375;28;93729;-72
2023/08/05 04:05:24;;;;;;;13.05;5.88;;;;;;;;;;4991608;28;92630;-72
2023/08/05 04:07:50;;;;;;;7.68;5.85;;;;;;;;;;4987628;28;94874;-72
2023/08/05 04:10:21;;;;;;;8.13;5.50;;;;;;;;;;4994476;28;93271;-72
2023/08/05 04:12:47;;;;;;;6.80;4.97;;;;;;;;;;4990382;28;93300;-71
2023/08/05 04:15:14;;;;;;;10.88;5.65;;;;;;;;;;4993764;28;93393;-71
2023/08/05 04:17:42;;;;;;;9.10;5.32;;;;;;;;;;4991733;28;92545;-72
2023/08/05 04:20:09;;;;;;;7.13;5.13;;;;;;;;;;4990778;28;93419;-72
2023/08/05 04:22:36;;;;;;;11.32;5.88;;;;;;;;;;4993391;28;93928;-71
2023/08/05 04:25:03;;;;;;;7.28;5.55;;;;;;;;;;4993861;28;95195;-72
2023/08/05 04:27:29;;;;;;;11.27;5.80;;;;;;;;;;4991811;28;92625;-72
2023/08/05 04:29:56;;;;;;;8.68;5.43;;;;;;;;;;4991972;28;93437;-71
2023/08/05 04:32:22;;;;;;;12.27;5.20;;;;;;;;;;4993110;28;94871;-71
2023/08/05 04:34:48;;;;;;;7.85;5.65;;;;;;;;;;4993727;28;93450;-71
2023/08/05 04:37:19;;;;;;;10.60;6.03;;;;;;;;;;4992412;28;92700;-72
2023/08/05 04:39:46;;;;;;;8.27;6.13;;;;;;;;;;4992119;28;93081;-72
2023/08/05 04:42:12;;;;;;;11.27;6.35;;;;;;;;;;4993725;28;94553;-72
2023/08/05 04:44:42;;;;;;;9.07;6.28;;;;;;;;;;4992614;28;92340;-72
2023/08/05 04:47:09;;;;;;;7.10;6.47;;;;;;;;;;4992228;28;93132;-72
2023/08/05 04:49:35;;;;;;;10.77;6.35;;;;;;;;;;4993086;28;92731;-72
2023/08/05 04:52:06;;;;;;;7.22;6.30;;;;;;;;;;4997111;28;92504;-72
2023/08/05 04:54:37;;;;;;;8.10;6.53;;;;;;;;;;4996878;28;93266;-72
2023/08/05 04:57:04;;;;;;;15.20;7.43;;;;;;;;;;4989812;28;94901;-72
2023/08/05 04:59:30;;;;;;;8.85;7.35;;;;;;;;;;4991331;28;95545;-73
2023/08/05 05:01:57;;;;;;;22.40;7.32;;;;;;;;;;4992504;28;93497;-72
2023/08/05 05:04:23;;;;;;;13.52;7.43;;;;;;;;;;4991789;28;93050;-72
2023/08/05 05:06:50;;;;;;;13.30;7.05;;;;;;;;;;4991787;28;92587;-72
2023/08/05 05:09:17;;;;;;;13.15;8.70;;;;;;;;;;4992354;28;94421;-72
2023/08/05 05:11:44;;;;;;;17.08;8.73;;;;;;;;;;4994629;28;92689;-72
2023/08/05 05:14:10;;;;;;;14.52;8.85;;;;;;;;;;4993419;28;93105;-72
2023/08/05 05:16:36;;;;;;;14.77;9.68;;;;;;;;;;4991929;28;92672;-73
2023/08/05 05:19:03;;;;;;;15.32;9.18;;;;;;;;;;4996234;28;93391;-73
2023/08/05 05:21:30;;;;;;;14.35;8.10;;;;;;;;;;4989469;28;95840;-72
2023/08/05 05:23:56;;;;;;;13.48;7.85;;;;;;;;;;4995111;28;92504;-73
2023/08/05 05:26:22;;;;;;;13.05;8.15;;;;;;;;;;4990532;28;92952;-73
2023/08/05 05:28:49;;;;;;;12.80;7.95;;;;;;;;;;4990497;28;93385;-73
2023/08/05 05:31:15;;;;;;;12.75;7.50;;;;;;;;;;4994775;28;92463;-72
2023/08/05 05:33:47;;;;;;;13.88;7.88;;;;;;;;;;4993937;28;93479;-72
2023/08/05 05:36:13;;;;;;;11.38;7.72;;;;;;;;;;4993179;28;93347;-72
2023/08/05 05:38:39;;;;;;;13.55;8.82;;;;;;;;;;4992367;28;94268;-72
2023/08/05 05:41:06;;;;;;;10.93;8.05;;;;;;;;;;4991857;28;93616;-72
2023/08/05 05:43:35;;;;;;;12.95;8.05;;;;;;;;;;4991621;28;92418;-73
2023/08/05 05:46:02;;;;;;;15.80;9.05;;;;;;;;;;4985653;28;94889;-73
2023/08/05 05:48:29;;;;;;;13.60;7.82;;;;;;;;;;4988483;28;97782;-73
2023/08/05 05:50:55;;;;;;;13.40;7.40;;;;;;;;;;4990438;28;92542;-74
2023/08/05 05:53:22;;;;;;;19.10;8.00;;;;;;;;;;4994314;28;93154;-73
2023/08/05 05:55:54;;;;;;;10.90;7.43;;;;;;;;;;4993927;28;93413;-73
2023/08/05 05:58:21;;;;;;;13.27;7.70;;;;;;;;;;4994227;28;92582;-73
2023/08/05 06:00:47;;;;;;;13.70;7.82;;;;;;;;;;4994389;28;94905;-73
2023/08/05 06:03:14;;;;;;;13.10;8.40;;;;;;;;;;4995775;28;91675;-74
2023/08/05 06:05:41;;;;;;;14.55;8.77;;;;;;;;;;4994851;28;92447;-73
2023/08/05 06:08:08;;;;;;;15.50;9.20;;;;;;;;;;4991368;28;93424;-74
2023/08/05 06:10:38;;;;;;;12.50;9.10;;;;;;;;;;4993112;28;94837;-72
2023/08/05 06:13:04;;;;;;;14.02;9.70;;;;;;;;;;4994962;28;95568;-73
2023/08/05 06:15:31;;;;;;;17.92;10.05;;;;;;;;;;4995389;28;94782;-73
2023/08/05 06:17:57;;;;;;;16.75;10.50;;;;;;;;;;4991940;28;92625;-72
2023/08/05 06:20:24;;;;;;;17.52;10.85;;;;;;;;;;4996312;28;93361;-73
2023/08/05 06:22:50;;;;;;;30.00;13.48;;;;;;;;;;4993054;28;92458;-73
2023/08/05 06:25:17;;;;;;;27.75;13.23;;;;;;;;;;4991396;28;93224;-73
2023/08/05 06:27:43;;;;;;;31.33;13.20;;;;;;;;;;4983778;28;92725;-72
2023/08/05 06:30:10;;;;;;;25.70;15.23;;;;;;;;;;4993371;28;92403;-72
2023/08/05 06:32:36;;;;;;;26.15;15.02;;;;;;;;;;4997807;28;92547;-73
2023/08/05 06:35:02;;;;;;;25.00;15.05;;;;;;;;;;4996036;28;95805;-73
2023/08/05 06:37:29;;;;;;;28.90;15.18;;;;;;;;;;4989982;28;92572;-72
2023/08/05 06:39:55;;;;;;;33.55;16.73;;;;;;;;;;5009038;28;93465;-72
2023/08/05 06:42:23;;;;;;;28.02;16.63;;;;;;;;;;4996027;28;93409;-72
2023/08/05 06:44:50;;;;;;;32.30;17.25;;;;;;;;;;4991849;28;96221;-73
2023/08/05 06:47:16;;;;;;;35.40;18.13;;;;;;;;;;5001512;28;94394;-73
2023/08/05 06:49:43;;;;;;;34.55;19.27;;;;;;;;;;4991797;28;92544;-72
2023/08/05 06:52:09;;;;;;;31.80;18.13;;;;;;;;;;4991613;28;93218;-73
2023/08/05 06:54:35;;;;;;;33.28;17.90;;;;;;;;;;4993639;28;93329;-73
2023/08/05 06:57:02;;;;;;;29.98;18.13;;;;;;;;;;4994026;28;92524;-73
2023/08/05 06:59:28;;;;;;;29.75;17.83;;;;;;;;;;4990830;28;94753;-73
2023/08/05 07:01:54;;;;;;;28.10;16.98;;;;;;;;;;4995219;28;93411;-73
2023/08/05 07:04:21;;;;;;;35.33;19.05;;;;;;;;;;4988236;28;93145;-72
2023/08/05 07:06:47;;;;;;;32.63;17.95;;;;;;;;;;4993202;28;93338;-73
2023/08/05 07:09:13;;;;;;;29.17;17.17;;;;;;;;;;4993052;28;92608;-72
2023/08/05 07:11:40;;;;;;;29.98;18.75;;;;;;;;;;4991631;28;93179;-72
2023/08/05 07:14:06;;;;;;;27.92;17.10;;;;;;;;;;4989422;28;93405;-72
2023/08/05 07:16:33;;;;;;;28.00;17.30;;;;;;;;;;4996311;28;91732;-72
2023/08/05 07:18:59;;;;;;;24.77;17.40;;;;;;;;;;4993251;28;92668;-72
2023/08/05 07:21:25;;;;;;;24.38;16.35;;;;;;;;;;4997265;28;94051;-72
2023/08/05 07:23:52;;;;;;;37.78;16.60;;;;;;;;;;4993219;28;94867;-73
2023/08/05 07:26:18;;;;;;;25.95;15.23;;;;;;;;;;4991555;28;93375;-73
2023/08/05 07:28:45;;;;;;;26.90;14.30;;;;;;;;;;4989185;28;92578;-72
2023/08/05 07:31:11;;;;;;;23.60;14.00;;;;;;;;;;4992776;28;92686;-73
2023/08/05 07:33:37;;;;;;;20.48;14.32;;;;;;;;;;4995622;28;92569;-72
2023/08/05 07:36:11;;;;;;;51.58;15.70;;;;;;;;;;4988554;28;93266;-73
2023/08/05 07:38:39;;;;;;;23.85;13.55;;;;;;;;;;4988947;28;93157;-73
2023/08/05 07:41:10;;;;;;;21.58;12.73;;;;;;;;;;4992982;28;92739;-73
2023/08/05 07:43:38;;;;;;;23.73;11.48;;;;;;;;;;4990054;28;92492;-73
2023/08/05 07:46:05;;;;;;;14.70;10.77;;;;;;;;;;4989765;28;93177;-72
2023/08/05 07:48:35;;;;;;;16.88;11.25;;;;;;;;;;4994275;28;95043;-73
2023/08/05 07:51:02;;;;;;;17.48;11.07;;;;;;;;;;4997156;28;95562;-72
2023/08/05 07:53:31;;;;;;;15.85;11.48;;;;;;;;;;4995553;28;93709;-72
2023/08/05 07:55:58;;;;;;;18.05;10.15;;;;;;;;;;4994830;28;92608;-72
2023/08/05 07:58:25;;;;;;;15.27;10.73;;;;;;;;;;4994206;28;93154;-72
2023/08/05 08:00:54;;;;;;;16.60;10.73;;;;;;;;;;4998901;28;93861;-72
2023/08/05 08:03:23;;;;;;;17.25;11.07;;;;;;;;;;4991395;28;92685;-72
2023/08/05 08:05:50;;;;;;;22.15;10.80;;;;;;;;;;4997600;28;93106;-72
2023/08/05 08:08:16;;;;;;;17.45;11.07;;;;;;;;;;4995486;28;93439;-72
2023/08/05 08:10:42;;;;;;;17.88;10.48;;;;;;;;;;4996695;28;93687;-73
2023/08/05 08:13:09;;;;;;;18.02;11.02;;;;;;;;;;4987638;28;95785;-72
2023/08/05 08:15:35;;;;;;;13.93;10.23;;;;;;;;;;4989854;28;92958;-75
2023/08/05 08:18:02;;;;;;;16.05;10.52;;;;;;;;;;5005395;28;93187;-72
2023/08/05 08:20:28;;;;;;;14.52;9.48;;;;;;;;;;4997484;28;93401;-73
2023/08/05 08:22:54;;;;;;;20.02;10.02;;;;;;;;;;4987291;28;93082;-75
2023/08/05 08:25:20;;;;;;;14.45;9.10;;;;;;;;;;4984769;28;94029;-74
2023/08/05 08:27:47;;;;;;;14.52;8.98;;;;;;;;;;4985355;28;93346;-74
2023/08/05 08:30:13;;;;;;;13.70;9.02;;;;;;;;;;4995707;28;92298;-72
2023/08/05 08:32:40;;;;;;;15.40;8.90;;;;;;;;;;4991603;28;92585;-74
2023/08/05 08:35:06;;;;;;;13.10;8.60;;;;;;;;;;4989210;28;92570;-72
2023/08/05 08:37:33;;;;;;;13.88;8.98;;;;;;;;;;4999261;28;95088;-74
2023/08/05 08:39:59;;;;;;;12.80;8.70;;;;;;;;;;4991160;28;93802;-73
2023/08/05 08:42:26;;;;;;;17.48;8.07;;;;;;;;;;4988668;28;92549;-73
2023/08/05 08:44:53;;;;;;;20.45;8.70;;;;;;;;;;4982794;28;93269;-73
2023/08/05 08:47:19;;;;;;;17.30;8.20;;;;;;;;;;4990260;28;93134;-73
2023/08/05 08:49:46;;;;;;;11.43;6.82;;;;;;;;;;4995188;28;92925;-73
2023/08/05 08:52:18;;;;;;;13.18;6.60;;;;;;;;;;4989511;28;93201;-73
2023/08/05 08:54:44;;;;;;;12.63;6.55;;;;;;;;;;4991868;28;91997;-73
2023/08/05 08:57:13;;;;;;;8.10;6.13;;;;;;;;;;4985635;28;93702;-73
2023/08/05 08:59:40;;;;;;;7.95;4.75;;;;;;;;;;4982785;28;93555;-73
2023/08/05 09:02:10;;;;;;;6.93;4.57;;;;;;;;;;4990145;28;94923;-73
2023/08/05 09:04:40;;;;;;;7.20;5.05;;;;;;;;;;4985869;28;95357;-75
2023/08/05 09:07:07;;;;;;;8.80;5.73;;;;;;;;;;4993436;28;93417;-75
2023/08/05 09:09:33;;;;;;;8.55;4.65;;;;;;;;;;4987260;28;92629;-75
2023/08/05 09:12:00;;;;;;;8.80;6.10;;;;;;;;;;4994674;28;94109;-75
2023/08/05 09:14:26;;;;;;;6.93;5.20;;;;;;;;;;4990727;28;92550;-75
2023/08/05 09:17:00;;;;;;;10.73;6.32;;;;;;;;;;4989479;28;93142;-75
2023/08/05 09:19:27;;;;;;;12.43;7.25;;;;;;;;;;4987356;28;93096;-75
2023/08/05 09:21:54;;;;;;;9.10;6.40;;;;;;;;;;4989752;28;92558;-75
2023/08/05 09:24:21;;;;;;;9.90;6.40;;;;;;;;;;4985957;28;93514;-75
2023/08/05 09:26:51;;;;;;;7.97;6.35;;;;;;;;;;4996437;28;97704;-75
2023/08/05 09:29:20;;;;;;;10.27;6.35;;;;;;;;;;4994711;28;92443;-74
2023/08/05 09:31:59;;;;;;;10.90;6.57;;;;;;;;;;4991764;28;94351;-74
2023/08/05 09:34:33;;;;;;;7.70;6.15;;;;;;;;;;4991673;28;93735;-75
2023/08/05 09:37:00;;;;;;;8.68;5.30;;;;;;;;;;4999681;28;96037;-75
2023/08/05 09:39:30;;;;;;;8.88;5.95;;;;;;;;;;4998084;28;93181;-75
2023/08/05 09:41:56;;;;;;;;;;;;;;;;;;4996360;28;92566;-75
2023/08/05 09:44:23;;;;;;;7.63;5.60;;;;;;;;;;4993989;28;122108;-75
2023/08/05 09:46:50;;;;;;;6.40;5.05;;;;;;;;;;4994591;28;93413;-74
2023/08/05 09:49:17;;;;;;;7.47;4.88;;;;;;;;;;4990297;28;92632;-75
2023/08/05 09:51:49;;;;;;;7.30;4.78;;;;;;;;;;4988542;28;95828;-74
2023/08/05 09:54:23;;;;;;;7.75;5.55;;;;;;;;;;4984805;28;93187;-74
2023/08/05 09:56:50;;;;;;;7.47;5.60;;;;;;;;;;4993286;28;92517;-74
2023/08/05 09:59:17;;;;;;;10.27;7.07;;;;;;;;;;4985391;28;93533;-74
2023/08/05 10:01:46;;;;;;;11.05;6.65;;;;;;;;;;4990216;28;92595;-74
2023/08/05 10:04:16;;;;;;;8.57;6.07;;;;;;;;;;4991918;28;92465;-74
2023/08/05 10:06:43;;;;;;;8.38;6.03;;;;;;;;;;4985753;28;93411;-74
2023/08/05 10:09:09;;;;;;;12.18;6.07;;;;;;;;;;4990594;28;92008;-74
2023/08/05 10:11:37;;;;;;;8.27;5.95;;;;;;;;;;4995424;28;94139;-75
2023/08/05 10:14:04;;;;;;;7.68;6.40;;;;;;;;;;4986344;28;97244;-75
2023/08/05 10:16:30;;;;;;;12.63;5.93;;;;;;;;;;4985823;28;96163;-75
2023/08/05 10:18:58;;;;;;;8.57;5.85;;;;;;;;;;4993180;28;96980;-75
2023/08/05 10:21:37;;;;;;;7.20;5.68;;;;;;;;;;4994625;28;92433;-74
2023/08/05 10:24:04;;;;;;;7.15;5.07;;;;;;;;;;4995685;28;93177;-75
2023/08/05 10:26:45;;;;;;;8.65;6.05;;;;;;;;;;4990724;28;94521;-74
2023/08/05 10:29:24;;;;;;;7.43;5.65;;;;;;;;;;4988856;28;92852;-75
2023/08/05 10:31:51;;;;;;;9.35;5.50;;;;;;;;;;4990778;28;92957;-75
2023/08/05 10:34:18;;;;;;;12.32;4.82;;;;;;;;;;4993557;28;91764;-75
2023/08/05 10:36:50;;;;;;;5.35;4.85;;;;;;;;;;4992072;28;92514;-75
2023/08/05 10:39:35;;;;;;;18.20;5.30;;;;;;;;;;4996019;28;93679;-74
2023/08/05 10:42:18;;;;;;;8.20;5.25;;;;;;;;;;4993603;28;96846;-74
2023/08/05 10:44:44;;;;;;;8.75;4.88;;;;;;;;;;4994570;28;96215;-74
2023/08/05 10:47:11;;;;;;;5.60;4.18;;;;;;;;;;4993365;28;93990;-74
2023/08/05 10:49:37;;;;;;;5.55;4.45;;;;;;;;;;4997756;28;92715;-74
2023/08/05 10:52:03;;;;;;;10.95;4.53;;;;;;;;;;5005573;28;94641;-74
2023/08/05 10:54:32;;;;;;;5.55;3.90;;;;;;;;;;4992994;28;93390;-74
2023/08/05 10:56:59;;;;;;;5.47;3.88;;;;;;;;;;4993594;28;93286;-74
2023/08/05 10:59:25;;;;;;;6.68;4.13;;;;;;;;;;4996886;28;93307;-74
2023/08/05 11:01:55;;;;;;;7.30;4.00;;;;;;;;;;4993777;28;93770;-75
2023/08/05 11:04:31;;;;;;;5.00;3.10;;;;;;;;;;4991951;28;92576;-74
2023/08/05 11:07:00;;;;;;;11.40;4.03;;;;;;;;;;4988109;28;96213;-74
2023/08/05 11:09:27;;;;;;;7.43;3.80;;;;;;;;;;4993779;28;92437;-74
2023/08/05 11:11:53;;;;;;;8.27;4.45;;;;;;;;;;4993635;28;93167;-73
2023/08/05 11:14:20;;;;;;;7.15;4.40;;;;;;;;;;4988626;28;93910;-73
2023/08/05 11:16:46;;;;;;;7.30;4.57;;;;;;;;;;4990111;28;92677;-73
2023/08/05 11:19:13;;;;;;;6.28;3.67;;;;;;;;;;4990185;28;94292;-73
2023/08/05 11:21:45;;;;;;;4.15;3.30;;;;;;;;;;4992996;28;93386;-74
2023/08/05 11:24:15;;;;;;;5.35;3.42;;;;;;;;;;4995572;28;93400;-73
2023/08/05 11:26:42;;;;;;;;;;;;;;;;;;4992062;28;92683;-73
2023/08/05 11:29:08;;;;;;;6.25;4.20;;;;;;;;;;4994154;28;116870;-73
2023/08/05 11:31:35;;;;;;;9.70;4.70;;;;;;;;;;4991501;28;94816;-73
2023/08/05 11:34:01;;;;;;;5.88;4.40;;;;;;;;;;4990151;28;93596;-73
2023/08/05 11:36:28;;;;;;;10.73;5.82;;;;;;;;;;4993495;28;92523;-73
2023/08/05 11:38:59;;;;;;;10.50;6.55;;;;;;;;;;4992964;28;93105;-73
2023/08/05 11:41:25;;;;;;;;;;;;;;;;;;4990507;28;93808;-73
2023/08/05 11:43:51;;;;;;;13.65;7.20;;;;;;;;;;4993398;28;118489;-73
2023/08/05 11:46:25;;;;;;;14.55;7.55;;;;;;;;;;4994002;28;95008;-73
2023/08/05 11:49:10;;;;;;;10.93;6.63;;;;;;;;;;4996209;28;91853;-73
2023/08/05 11:51:49;;;;;;;12.52;6.22;;;;;;;;;;4990870;28;92932;-73
2023/08/05 11:54:26;;;;;;;10.13;6.05;;;;;;;;;;4983599;28;94345;-73
2023/08/05 11:56:52;;;;;;;10.77;4.95;;;;;;;;;;4987764;28;95194;-73
2023/08/05 11:59:37;;;;;;;8.80;5.10;;;;;;;;;;4991012;28;95518;-73
2023/08/05 12:02:04;;;;;;;9.93;5.07;;;;;;;;;;4988672;28;94544;-73
2023/08/05 12:04:30;;;;;;;11.93;4.88;;;;;;;;;;4992442;28;92530;-73
2023/08/05 12:06:57;;;;;;;15.18;5.30;;;;;;;;;;4992899;28;92371;-73
2023/08/05 12:09:24;;;;;;;7.70;4.57;;;;;;;;;;4991911;28;93483;-73
2023/08/05 12:11:55;;;;;;;12.48;5.18;;;;;;;;;;4988307;28;94550;-73
2023/08/05 12:14:21;;;;;;;7.10;4.78;;;;;;;;;;4996252;28;93013;-73
2023/08/05 12:16:48;;;;;;;8.88;4.68;;;;;;;;;;4992145;28;92806;-73
2023/08/05 12:19:14;;;;;;;10.73;5.13;;;;;;;;;;4992130;28;93587;-73
2023/08/05 12:21:41;;;;;;;6.78;4.65;;;;;;;;;;4988168;28;96025;-73
2023/08/05 12:24:07;;;;;;;6.93;4.60;;;;;;;;;;4992552;28;92979;-73
2023/08/05 12:26:34;;;;;;;9.48;4.47;;;;;;;;;;4992872;28;93165;-73
2023/08/05 12:29:00;;;;;;;10.57;4.53;;;;;;;;;;4990742;28;93239;-74
2023/08/05 12:31:27;;;;;;;8.30;3.20;;;;;;;;;;4990412;28;92395;-74
2023/08/05 12:33:53;;;;;;;8.82;3.90;;;;;;;;;;4992408;28;96092;-75
2023/08/05 12:36:19;;;;;;;5.47;3.17;;;;;;;;;;4990748;28;92438;-75
2023/08/05 12:38:48;;;;;;;3.33;2.65;;;;;;;;;;4990982;28;93111;-75
2023/08/05 12:41:14;;;;;;;8.25;3.65;;;;;;;;;;4989769;28;93652;-75
2023/08/05 12:43:41;;;;;;;10.18;3.50;;;;;;;;;;4991996;28;92628;-74
2023/08/05 12:46:07;;;;;;;6.70;3.42;;;;;;;;;;4991526;28;94719;-75
2023/08/05 12:48:34;;;;;;;4.72;3.40;;;;;;;;;;4989069;28;93377;-75
2023/08/05 12:51:00;;;;;;;7.88;3.78;;;;;;;;;;4984350;28;92581;-75
2023/08/05 12:53:26;;;;;;;6.35;2.83;;;;;;;;;;4995517;28;93117;-74
2023/08/05 12:55:53;;;;;;;4.95;2.80;;;;;;;;;;4988020;28;92910;-75
2023/08/05 12:58:20;;;;;;;7.90;3.00;;;;;;;;;;4987599;28;93193;-75
2023/08/05 13:00:46;;;;;;;7.32;2.92;;;;;;;;;;4987337;28;93474;-74
2023/08/05 13:03:13;;;;;;;7.93;3.03;;;;;;;;;;4993206;28;91954;-75
2023/08/05 13:05:39;;;;;;;6.95;3.03;;;;;;;;;;4992515;28;92474;-75
2023/08/05 13:08:06;;;;;;;4.93;2.58;;;;;;;;;;4990863;28;94358;-75
2023/08/05 13:10:34;;;;;;;4.85;2.88;;;;;;;;;;4986579;28;94862;-74
2023/08/05 13:13:01;;;;;;;7.57;2.63;;;;;;;;;;4990104;28;96059;-74
2023/08/05 13:15:27;;;;;;;5.63;2.35;;;;;;;;;;4988308;28;92595;-74
2023/08/05 13:17:53;;;;;;;3.53;2.20;;;;;;;;;;4993606;28;93388;-74
2023/08/05 13:20:20;;;;;;;7.93;3.30;;;;;;;;;;4991042;28;93876;-73
2023/08/05 13:22:46;;;;;;;4.22;2.67;;;;;;;;;;4992051;28;92683;-74
2023/08/05 13:25:12;;;;;;;7.63;3.08;;;;;;;;;;4996079;28;93137;-73
2023/08/05 13:27:39;;;;;;;4.60;2.97;;;;;;;;;;4993525;28;92661;-74
2023/08/05 13:30:06;;;;;;;10.73;3.17;;;;;;;;;;4993848;28;92494;-74
2023/08/05 13:32:32;;;;;;;4.68;3.05;;;;;;;;;;4992521;28;93098;-74
2023/08/05 13:34:58;;;;;;;7.90;3.78;;;;;;;;;;4987909;28;95759;-75
2023/08/05 13:37:25;;;;;;;9.52;3.55;;;;;;;;;;4991004;28;95487;-74
2023/08/05 13:39:51;;;;;;;6.70;3.85;;;;;;;;;;4988100;28;93975;-74
2023/08/05 13:42:18;;;;;;;6.97;3.45;;;;;;;;;;4990483;28;92518;-74
2023/08/05 13:44:44;;;;;;;8.73;3.47;;;;;;;;;;4991153;28;93539;-74
2023/08/05 13:47:11;;;;;;;3.15;2.92;;;;;;;;;;4989570;28;93784;-74
2023/08/05 13:49:37;;;;;;;12.00;3.58;;;;;;;;;;4987032;28;92624;-74
2023/08/05 13:52:04;;;;;;;12.15;4.45;;;;;;;;;;4986317;28;93092;-74
2023/08/05 13:54:30;;;;;;;8.45;4.28;;;;;;;;;;4987589;28;93417;-74
2023/08/05 13:56:56;;;;;;;10.95;4.32;;;;;;;;;;4993268;28;92639;-74
2023/08/05 13:59:23;;;;;;;9.60;4.93;;;;;;;;;;4987191;28;95809;-74
2023/08/05 14:01:49;;;;;;;7.72;4.15;;;;;;;;;;4991128;28;92485;-74
2023/08/05 14:04:17;;;;;;;8.52;4.80;;;;;;;;;;4991010;28;93128;-74
2023/08/05 14:06:43;;;;;;;9.27;4.60;;;;;;;;;;4983499;28;93532;-74
2023/08/05 14:09:10;;;;;;;12.93;4.45;;;;;;;;;;4989632;28;92537;-74
2023/08/05 14:11:36;;;;;;;10.10;4.50;;;;;;;;;;4991478;28;93141;-74
2023/08/05 14:14:02;;;;;;;10.13;3.97;;;;;;;;;;4991375;28;93419;-74
2023/08/05 14:16:30;;;;;;;10.50;3.70;;;;;;;;;;4992928;28;91782;-74
2023/08/05 14:18:56;;;;;;;5.75;3.85;;;;;;;;;;4988568;28;92912;-74
2023/08/05 14:21:22;;;;;;;5.97;4.05;;;;;;;;;;4990491;28;92922;-74
2023/08/05 14:23:49;;;;;;;6.70;3.80;;;;;;;;;;4994269;28;94964;-74
2023/08/05 14:26:15;;;;;;;5.65;3.80;;;;;;;;;;4991338;28;93647;-74
2023/08/05 14:28:41;;;;;;;12.80;4.60;;;;;;;;;;4991381;28;92492;-74
2023/08/05 14:31:08;;;;;;;11.60;4.18;;;;;;;;;;5005038;28;93683;-74
2023/08/05 14:33:34;;;;;;;11.63;4.80;;;;;;;;;;4999794;28;95495;-74
2023/08/05 14:36:08;;;;;;;7.45;4.00;;;;;;;;;;4995144;28;92546;-74